sensor_id;sensor_type;location;lat;lon;timestamp;pressure;altitude;pressure_sealevel;temperature;humidity
4570;BME280;2297;51.442;6.996;2023-07-31T00:00:35;99827.09;;;16.79;74.09
4570;BME280;2297;51.442;6.996;2023-07-31T00:03:02;99825.59;;;17.07;73.36
4570;BME280;2297;51.442;6.996;2023-07-31T00:05:30;99824.19;;;16.68;74.07
4570;BME280;2297;51.442;6.996;2023-07-31T00:07:59;99815.81;;;16.92;73.57
4570;BME280;2297;51.442;6.996;2023-07-31T00:10:25;99819.75;;;16.85;73.71
4570;BME280;2297;51.442;6.996;2023-07-31T00:12:52;99820.97;;;16.95;73.27
4570;BME280;2297;51.442;6.996;2023-07-31T00:15:19;99822.66;;;16.80;73.63
4570;BME280;2297;51.442;6.996;2023-07-31T00:17:45;99820.72;;;16.66;74.42
4570;BME280;2297;51.442;6.996;2023-07-31T00:20:13;99814.53;;;16.66;74.44
4570;BME280;2297;51.442;6.996;2023-07-31T00:22:41;99824.00;;;16.71;73.82
4570;BME280;2297;51.442;6.996;2023-07-31T00:25:07;99823.31;;;16.34;75.03
4570;BME280;2297;51.442;6.996;2023-07-31T00:27:34;99816.94;;;16.70;74.42
4570;BME280;2297;51.442;6.996;2023-07-31T00:30:01;99805.53;;;16.51;75.03
4570;BME280;2297;51.442;6.996;2023-07-31T00:32:27;99810.97;;;16.83;73.56
4570;BME280;2297;51.442;6.996;2023-07-31T00:34:54;99804.91;;;16.63;73.58
4570;BME280;2297;51.442;6.996;2023-07-31T00:37:21;99809.38;;;16.78;73.72
4570;BME280;2297;51.442;6.996;2023-07-31T00:39:49;99806.13;;;16.73;74.09
4570;BME280;2297;51.442;6.996;2023-07-31T00:42:17;99809.88;;;16.69;73.96
4570;BME280;2297;51.442;6.996;2023-07-31T00:44:47;99796.47;;;16.55;74.10
4570;BME280;2297;51.442;6.996;2023-07-31T00:47:13;99807.13;;;16.55;74.30
4570;BME280;2297;51.442;6.996;2023-07-31T00:49:40;99818.81;;;16.52;74.33
4570;BME280;2297;51.442;6.996;2023-07-31T00:52:08;99821.16;;;16.74;73.13
4570;BME280;2297;51.442;6.996;2023-07-31T00:54:35;99818.94;;;16.83;72.64
4570;BME280;2297;51.442;6.996;2023-07-31T00:57:04;99794.66;;;16.71;72.49
4570;BME280;2297;51.442;6.996;2023-07-31T00:59:33;99809.94;;;16.52;74.13
4570;BME280;2297;51.442;6.996;2023-07-31T01:01:59;99796.34;;;16.90;71.99
4570;BME280;2297;51.442;6.996;2023-07-31T01:04:27;99812.91;;;16.63;72.76
4570;BME280;2297;51.442;6.996;2023-07-31T01:06:57;99809.72;;;16.72;72.94
4570;BME280;2297;51.442;6.996;2023-07-31T01:09:29;99816.16;;;17.18;71.06
4570;BME280;2297;51.442;6.996;2023-07-31T01:12:02;99806.09;;;16.57;72.03
4570;BME280;2297;51.442;6.996;2023-07-31T01:14:30;99792.75;;;16.91;71.18
4570;BME280;2297;51.442;6.996;2023-07-31T01:16:57;99798.69;;;16.62;72.23
4570;BME280;2297;51.442;6.996;2023-07-31T01:19:25;99796.00;;;16.80;71.68
4570;BME280;2297;51.442;6.996;2023-07-31T01:22:28;99795.78;;;16.67;72.39
4570;BME280;2297;51.442;6.996;2023-07-31T01:25:10;99804.72;;;16.66;72.30
4570;BME280;2297;51.442;6.996;2023-07-31T01:27:44;99798.22;;;16.88;70.96
4570;BME280;2297;51.442;6.996;2023-07-31T01:30:16;99805.56;;;16.84;70.71
4570;BME280;2297;51.442;6.996;2023-07-31T01:32:47;99804.00;;;17.28;69.50
4570;BME280;2297;51.442;6.996;2023-07-31T01:35:14;99810.22;;;17.12;69.96
4570;BME280;2297;51.442;6.996;2023-07-31T01:37:41;99804.44;;;17.20;69.33
4570;BME280;2297;51.442;6.996;2023-07-31T01:40:08;99808.47;;;17.11;69.44
4570;BME280;2297;51.442;6.996;2023-07-31T01:42:35;99799.53;;;17.12;69.56
4570;BME280;2297;51.442;6.996;2023-07-31T01:45:04;99799.97;;;17.21;68.84
4570;BME280;2297;51.442;6.996;2023-07-31T01:47:31;99802.50;;;16.74;70.35
4570;BME280;2297;51.442;6.996;2023-07-31T01:49:57;99807.03;;;17.22;68.38
4570;BME280;2297;51.442;6.996;2023-07-31T01:52:24;99777.00;;;16.86;69.50
4570;BME280;2297;51.442;6.996;2023-07-31T01:54:51;99790.31;;;17.02;68.62
4570;BME280;2297;51.442;6.996;2023-07-31T01:57:18;99784.75;;;16.91;68.88
4570;BME280;2297;51.442;6.996;2023-07-31T01:59:44;99788.44;;;17.04;68.51
4570;BME280;2297;51.442;6.996;2023-07-31T02:02:12;99791.34;;;17.00;68.28
4570;BME280;2297;51.442;6.996;2023-07-31T02:04:39;99782.22;;;16.88;68.96
4570;BME280;2297;51.442;6.996;2023-07-31T02:07:06;99790.84;;;16.93;68.56
4570;BME280;2297;51.442;6.996;2023-07-31T02:09:32;99776.47;;;17.11;67.81
4570;BME280;2297;51.442;6.996;2023-07-31T02:11:59;99779.81;;;17.31;67.10
4570;BME280;2297;51.442;6.996;2023-07-31T02:14:26;99777.94;;;17.33;66.91
4570;BME280;2297;51.442;6.996;2023-07-31T02:16:53;99770.69;;;17.19;67.56
4570;BME280;2297;51.442;6.996;2023-07-31T02:19:21;99771.59;;;17.20;66.91
4570;BME280;2297;51.442;6.996;2023-07-31T02:21:48;99770.88;;;17.32;66.58
4570;BME280;2297;51.442;6.996;2023-07-31T02:24:14;99773.06;;;16.60;68.20
4570;BME280;2297;51.442;6.996;2023-07-31T02:26:41;99774.50;;;16.99;67.78
4570;BME280;2297;51.442;6.996;2023-07-31T02:29:08;99769.50;;;16.93;67.47
4570;BME280;2297;51.442;6.996;2023-07-31T02:31:35;99773.16;;;16.92;67.46
4570;BME280;2297;51.442;6.996;2023-07-31T02:34:02;99769.81;;;16.71;67.90
4570;BME280;2297;51.442;6.996;2023-07-31T02:36:30;99774.16;;;17.21;66.67
4570;BME280;2297;51.442;6.996;2023-07-31T02:38:56;99759.50;;;16.65;67.36
4570;BME280;2297;51.442;6.996;2023-07-31T02:41:23;99757.28;;;16.89;67.39
4570;BME280;2297;51.442;6.996;2023-07-31T02:43:50;99756.66;;;17.16;66.54
4570;BME280;2297;51.442;6.996;2023-07-31T02:46:16;99758.59;;;17.13;66.44
4570;BME280;2297;51.442;6.996;2023-07-31T02:48:42;99758.06;;;17.07;66.55
4570;BME280;2297;51.442;6.996;2023-07-31T02:51:08;99759.34;;;16.84;66.85
4570;BME280;2297;51.442;6.996;2023-07-31T02:53:36;99758.31;;;17.18;65.52
4570;BME280;2297;51.442;6.996;2023-07-31T02:56:03;99759.88;;;17.06;65.99
4570;BME280;2297;51.442;6.996;2023-07-31T02:58:30;99750.19;;;16.56;67.03
4570;BME280;2297;51.442;6.996;2023-07-31T03:00:58;99754.03;;;16.84;67.06
4570;BME280;2297;51.442;6.996;2023-07-31T03:03:24;99749.78;;;16.79;66.84
4570;BME280;2297;51.442;6.996;2023-07-31T03:05:51;99743.19;;;17.19;65.96
4570;BME280;2297;51.442;6.996;2023-07-31T03:08:18;99749.47;;;16.86;66.86
4570;BME280;2297;51.442;6.996;2023-07-31T03:10:46;99741.25;;;17.21;65.64
4570;BME280;2297;51.442;6.996;2023-07-31T03:13:12;99736.03;;;16.71;67.21
4570;BME280;2297;51.442;6.996;2023-07-31T03:15:41;99734.94;;;16.91;67.24
4570;BME280;2297;51.442;6.996;2023-07-31T03:18:08;99737.66;;;17.22;66.32
4570;BME280;2297;51.442;6.996;2023-07-31T03:20:35;99740.25;;;17.07;66.96
4570;BME280;2297;51.442;6.996;2023-07-31T03:23:02;99741.94;;;17.24;66.42
4570;BME280;2297;51.442;6.996;2023-07-31T03:25:28;99747.13;;;17.11;66.68
4570;BME280;2297;51.442;6.996;2023-07-31T03:27:56;99742.66;;;17.28;66.03
4570;BME280;2297;51.442;6.996;2023-07-31T03:30:23;99733.69;;;16.65;67.65
4570;BME280;2297;51.442;6.996;2023-07-31T03:32:49;99742.22;;;17.20;66.47
4570;BME280;2297;51.442;6.996;2023-07-31T03:35:16;99740.31;;;17.22;65.99
4570;BME280;2297;51.442;6.996;2023-07-31T03:37:43;99733.84;;;17.26;65.96
4570;BME280;2297;51.442;6.996;2023-07-31T03:40:11;99743.50;;;17.28;65.91
4570;BME280;2297;51.442;6.996;2023-07-31T03:42:37;99744.22;;;17.16;66.67
4570;BME280;2297;51.442;6.996;2023-07-31T03:45:07;99734.41;;;16.85;67.18
4570;BME280;2297;51.442;6.996;2023-07-31T03:47:34;99738.91;;;17.00;67.38
4570;BME280;2297;51.442;6.996;2023-07-31T03:50:01;99732.25;;;17.07;66.76
4570;BME280;2297;51.442;6.996;2023-07-31T03:52:27;99735.44;;;16.98;66.82
4570;BME280;2297;51.442;6.996;2023-07-31T03:54:54;99738.19;;;16.96;66.93
4570;BME280;2297;51.442;6.996;2023-07-31T03:57:21;99737.69;;;17.06;66.67
4570;BME280;2297;51.442;6.996;2023-07-31T03:59:47;99735.22;;;16.87;67.25
4570;BME280;2297;51.442;6.996;2023-07-31T04:02:15;99728.34;;;17.29;65.96
4570;BME280;2297;51.442;6.996;2023-07-31T04:04:44;99734.34;;;17.33;66.27
4570;BME280;2297;51.442;6.996;2023-07-31T04:07:10;99734.09;;;17.37;65.91
4570;BME280;2297;51.442;6.996;2023-07-31T04:09:37;99733.47;;;17.48;65.50
4570;BME280;2297;51.442;6.996;2023-07-31T04:12:04;99731.44;;;17.37;66.10
4570;BME280;2297;51.442;6.996;2023-07-31T04:14:31;99723.47;;;17.21;66.28
4570;BME280;2297;51.442;6.996;2023-07-31T04:16:58;99719.03;;;17.36;65.66
4570;BME280;2297;51.442;6.996;2023-07-31T04:19:26;99719.84;;;17.53;65.60
4570;BME280;2297;51.442;6.996;2023-07-31T04:21:52;99709.53;;;17.46;65.97
4570;BME280;2297;51.442;6.996;2023-07-31T04:24:19;99713.19;;;17.60;65.30
4570;BME280;2297;51.442;6.996;2023-07-31T04:26:49;99714.69;;;17.50;65.52
4570;BME280;2297;51.442;6.996;2023-07-31T04:29:16;99706.97;;;17.45;66.08
4570;BME280;2297;51.442;6.996;2023-07-31T04:31:43;99706.28;;;17.41;66.01
4570;BME280;2297;51.442;6.996;2023-07-31T04:34:09;99705.38;;;17.57;65.55
4570;BME280;2297;51.442;6.996;2023-07-31T04:36:38;99704.19;;;17.46;66.28
4570;BME280;2297;51.442;6.996;2023-07-31T04:39:04;99706.00;;;17.46;66.52
4570;BME280;2297;51.442;6.996;2023-07-31T04:41:31;99701.69;;;17.29;66.80
4570;BME280;2297;51.442;6.996;2023-07-31T04:46:24;99700.88;;;17.57;66.08
4570;BME280;2297;51.442;6.996;2023-07-31T04:48:51;99702.28;;;17.49;66.35
4570;BME280;2297;51.442;6.996;2023-07-31T04:51:17;99696.34;;;17.43;66.45
4570;BME280;2297;51.442;6.996;2023-07-31T04:53:45;99704.84;;;17.66;65.88
4570;BME280;2297;51.442;6.996;2023-07-31T04:56:12;99686.41;;;17.61;65.79
4570;BME280;2297;51.442;6.996;2023-07-31T04:58:39;99693.53;;;17.46;66.37
4570;BME280;2297;51.442;6.996;2023-07-31T05:01:06;99686.81;;;17.39;67.03
4570;BME280;2297;51.442;6.996;2023-07-31T05:03:32;99682.69;;;17.64;66.17
4570;BME280;2297;51.442;6.996;2023-07-31T05:05:59;99682.88;;;17.61;66.42
4570;BME280;2297;51.442;6.996;2023-07-31T05:08:25;99678.66;;;17.42;67.03
4570;BME280;2297;51.442;6.996;2023-07-31T05:10:53;99670.25;;;17.49;66.85
4570;BME280;2297;51.442;6.996;2023-07-31T05:13:20;99663.47;;;17.73;66.18
4570;BME280;2297;51.442;6.996;2023-07-31T05:15:47;99667.31;;;17.84;66.01
4570;BME280;2297;51.442;6.996;2023-07-31T05:18:14;99675.03;;;17.58;66.88
4570;BME280;2297;51.442;6.996;2023-07-31T05:20:41;99667.78;;;17.45;67.62
4570;BME280;2297;51.442;6.996;2023-07-31T05:23:08;99668.13;;;17.39;67.40
4570;BME280;2297;51.442;6.996;2023-07-31T05:25:35;99670.13;;;17.81;66.17
4570;BME280;2297;51.442;6.996;2023-07-31T05:28:03;99657.94;;;17.76;66.03
4570;BME280;2297;51.442;6.996;2023-07-31T05:30:30;99660.94;;;17.56;66.56
4570;BME280;2297;51.442;6.996;2023-07-31T05:32:56;99654.56;;;17.58;66.79
4570;BME280;2297;51.442;6.996;2023-07-31T05:35:23;99661.75;;;17.72;66.50
4570;BME280;2297;51.442;6.996;2023-07-31T05:37:50;99655.84;;;17.82;65.83
4570;BME280;2297;51.442;6.996;2023-07-31T05:40:16;99657.41;;;17.55;66.72
4570;BME280;2297;51.442;6.996;2023-07-31T05:42:43;99663.50;;;17.57;67.10
4570;BME280;2297;51.442;6.996;2023-07-31T05:45:11;99652.06;;;17.55;66.99
4570;BME280;2297;51.442;6.996;2023-07-31T05:47:38;99645.78;;;17.56;67.32
4570;BME280;2297;51.442;6.996;2023-07-31T05:50:05;99643.38;;;17.37;68.17
4570;BME280;2297;51.442;6.996;2023-07-31T05:52:32;99642.38;;;17.24;68.98
4570;BME280;2297;51.442;6.996;2023-07-31T05:55:14;99641.31;;;17.57;67.74
4570;BME280;2297;51.442;6.996;2023-07-31T05:57:41;99634.88;;;17.75;66.74
4570;BME280;2297;51.442;6.996;2023-07-31T06:00:11;99637.25;;;17.80;66.29
4570;BME280;2297;51.442;6.996;2023-07-31T06:02:38;99631.78;;;17.67;66.97
4570;BME280;2297;51.442;6.996;2023-07-31T06:05:05;99622.06;;;17.81;66.52
4570;BME280;2297;51.442;6.996;2023-07-31T06:07:32;99620.88;;;17.41;68.21
4570;BME280;2297;51.442;6.996;2023-07-31T06:09:58;99618.28;;;17.85;66.47
4570;BME280;2297;51.442;6.996;2023-07-31T06:12:28;99616.66;;;17.68;66.71
4570;BME280;2297;51.442;6.996;2023-07-31T06:14:55;99625.38;;;17.55;67.06
4570;BME280;2297;51.442;6.996;2023-07-31T06:17:23;99615.22;;;17.91;65.99
4570;BME280;2297;51.442;6.996;2023-07-31T06:19:51;99621.69;;;18.16;65.23
4570;BME280;2297;51.442;6.996;2023-07-31T06:22:18;99618.03;;;17.59;66.83
4570;BME280;2297;51.442;6.996;2023-07-31T06:24:45;99620.19;;;17.83;66.32
4570;BME280;2297;51.442;6.996;2023-07-31T06:27:12;99619.59;;;17.92;66.50
4570;BME280;2297;51.442;6.996;2023-07-31T06:29:38;99619.69;;;18.05;66.67
4570;BME280;2297;51.442;6.996;2023-07-31T06:32:05;99619.16;;;18.27;66.28
4570;BME280;2297;51.442;6.996;2023-07-31T06:34:34;99617.88;;;17.91;67.32
4570;BME280;2297;51.442;6.996;2023-07-31T06:37:00;99612.75;;;17.88;67.36
4570;BME280;2297;51.442;6.996;2023-07-31T06:39:27;99628.38;;;17.65;68.42
4570;BME280;2297;51.442;6.996;2023-07-31T06:41:54;99615.78;;;17.67;68.69
4570;BME280;2297;51.442;6.996;2023-07-31T06:44:20;99616.88;;;17.63;68.46
4570;BME280;2297;51.442;6.996;2023-07-31T06:46:47;99618.78;;;17.46;69.36
4570;BME280;2297;51.442;6.996;2023-07-31T06:49:13;99622.28;;;17.33;69.77
4570;BME280;2297;51.442;6.996;2023-07-31T06:51:42;99619.84;;;17.44;69.43
4570;BME280;2297;51.442;6.996;2023-07-31T06:54:09;99614.97;;;17.51;68.85
4570;BME280;2297;51.442;6.996;2023-07-31T06:56:36;99631.75;;;17.38;69.86
4570;BME280;2297;51.442;6.996;2023-07-31T06:59:03;99620.13;;;17.54;69.45
4570;BME280;2297;51.442;6.996;2023-07-31T07:01:30;99614.13;;;17.50;69.54
4570;BME280;2297;51.442;6.996;2023-07-31T07:03:56;99618.97;;;17.43;69.76
4570;BME280;2297;51.442;6.996;2023-07-31T07:06:23;99622.88;;;17.52;70.03
4570;BME280;2297;51.442;6.996;2023-07-31T07:08:51;99622.47;;;17.74;69.51
4570;BME280;2297;51.442;6.996;2023-07-31T07:11:17;99624.50;;;17.40;70.16
4570;BME280;2297;51.442;6.996;2023-07-31T07:13:44;99626.47;;;17.37;71.05
4570;BME280;2297;51.442;6.996;2023-07-31T07:16:11;99606.00;;;17.37;70.86
4570;BME280;2297;51.442;6.996;2023-07-31T07:18:37;99609.22;;;17.28;71.87
4570;BME280;2297;51.442;6.996;2023-07-31T07:21:04;99612.09;;;17.39;71.42
4570;BME280;2297;51.442;6.996;2023-07-31T07:23:31;99614.03;;;17.52;70.98
4570;BME280;2297;51.442;6.996;2023-07-31T07:25:59;99605.78;;;17.26;71.60
4570;BME280;2297;51.442;6.996;2023-07-31T07:28:25;99610.53;;;17.21;71.99
4570;BME280;2297;51.442;6.996;2023-07-31T07:30:53;99607.56;;;17.56;70.69
4570;BME280;2297;51.442;6.996;2023-07-31T07:33:20;99602.38;;;17.24;71.65
4570;BME280;2297;51.442;6.996;2023-07-31T07:35:47;99603.59;;;17.33;71.33
4570;BME280;2297;51.442;6.996;2023-07-31T07:41:28;99601.81;;;17.33;71.84
4570;BME280;2297;51.442;6.996;2023-07-31T07:43:54;99602.16;;;17.27;71.68
4570;BME280;2297;51.442;6.996;2023-07-31T07:46:21;99586.16;;;17.27;71.87
4570;BME280;2297;51.442;6.996;2023-07-31T07:48:48;99590.19;;;17.49;71.18
4570;BME280;2297;51.442;6.996;2023-07-31T07:51:15;99588.72;;;17.73;70.37
4570;BME280;2297;51.442;6.996;2023-07-31T07:53:41;99595.47;;;17.93;69.64
4570;BME280;2297;51.442;6.996;2023-07-31T07:56:08;99609.44;;;17.54;70.31
4570;BME280;2297;51.442;6.996;2023-07-31T07:58:36;99601.03;;;17.31;70.90
4570;BME280;2297;51.442;6.996;2023-07-31T08:01:03;99605.34;;;17.48;70.76
4570;BME280;2297;51.442;6.996;2023-07-31T08:03:31;99599.72;;;17.38;71.06
4570;BME280;2297;51.442;6.996;2023-07-31T08:05:58;99587.09;;;17.26;71.39
4570;BME280;2297;51.442;6.996;2023-07-31T08:08:25;99599.28;;;17.16;71.72
4570;BME280;2297;51.442;6.996;2023-07-31T08:10:52;99588.88;;;17.56;70.52
4570;BME280;2297;51.442;6.996;2023-07-31T08:13:19;99588.09;;;17.54;70.54
4570;BME280;2297;51.442;6.996;2023-07-31T08:15:47;99590.22;;;17.77;70.26
4570;BME280;2297;51.442;6.996;2023-07-31T08:18:17;99588.78;;;17.12;71.95
4570;BME280;2297;51.442;6.996;2023-07-31T08:20:44;99588.50;;;17.03;71.87
4570;BME280;2297;51.442;6.996;2023-07-31T08:23:11;99574.25;;;17.33;70.86
4570;BME280;2297;51.442;6.996;2023-07-31T08:25:38;99574.16;;;17.20;70.90
4570;BME280;2297;51.442;6.996;2023-07-31T08:28:06;99573.03;;;17.53;69.68
4570;BME280;2297;51.442;6.996;2023-07-31T08:30:32;99582.75;;;17.54;69.95
4570;BME280;2297;51.442;6.996;2023-07-31T08:33:01;99577.25;;;17.86;68.93
4570;BME280;2297;51.442;6.996;2023-07-31T08:35:28;99572.47;;;17.48;70.03
4570;BME280;2297;51.442;6.996;2023-07-31T08:37:55;99577.97;;;17.44;70.00
4570;BME280;2297;51.442;6.996;2023-07-31T08:40:21;99579.34;;;17.52;69.95
4570;BME280;2297;51.442;6.996;2023-07-31T08:42:50;99556.75;;;17.57;70.11
4570;BME280;2297;51.442;6.996;2023-07-31T08:45:18;99554.94;;;17.72;69.25
4570;BME280;2297;51.442;6.996;2023-07-31T08:47:47;99558.97;;;17.65;69.10
4570;BME280;2297;51.442;6.996;2023-07-31T08:50:17;99551.97;;;17.48;69.78
4570;BME280;2297;51.442;6.996;2023-07-31T08:52:45;99568.50;;;17.69;69.25
4570;BME280;2297;51.442;6.996;2023-07-31T08:55:13;99573.59;;;17.29;70.87
4570;BME280;2297;51.442;6.996;2023-07-31T08:57:42;99565.50;;;17.31;70.89
4570;BME280;2297;51.442;6.996;2023-07-31T09:00:12;99563.25;;;17.68;70.05
4570;BME280;2297;51.442;6.996;2023-07-31T09:02:45;99570.38;;;17.96;68.89
4570;BME280;2297;51.442;6.996;2023-07-31T09:05:12;99576.09;;;17.61;70.22
4570;BME280;2297;51.442;6.996;2023-07-31T09:07:43;99575.47;;;17.86;69.68
4570;BME280;2297;51.442;6.996;2023-07-31T09:10:12;99581.50;;;17.31;71.35
4570;BME280;2297;51.442;6.996;2023-07-31T09:12:40;99587.50;;;17.20;70.99
4570;BME280;2297;51.442;6.996;2023-07-31T09:15:08;99572.00;;;17.41;71.35
4570;BME280;2297;51.442;6.996;2023-07-31T09:17:36;99580.91;;;17.25;71.46
4570;BME280;2297;51.442;6.996;2023-07-31T09:20:16;99574.72;;;17.10;72.61
4570;BME280;2297;51.442;6.996;2023-07-31T09:22:45;99569.78;;;17.33;71.70
4570;BME280;2297;51.442;6.996;2023-07-31T09:25:17;99564.53;;;17.46;71.40
4570;BME280;2297;51.442;6.996;2023-07-31T09:27:53;99562.56;;;17.64;70.71
4570;BME280;2297;51.442;6.996;2023-07-31T09:30:22;99555.16;;;17.69;70.60
4570;BME280;2297;51.442;6.996;2023-07-31T09:32:50;99568.69;;;17.66;70.71
4570;BME280;2297;51.442;6.996;2023-07-31T09:35:21;99554.00;;;17.88;70.10
4570;BME280;2297;51.442;6.996;2023-07-31T09:37:51;99557.78;;;17.40;71.62
4570;BME280;2297;51.442;6.996;2023-07-31T09:40:28;99547.31;;;17.52;70.94
4570;BME280;2297;51.442;6.996;2023-07-31T09:42:59;99558.69;;;17.25;71.82
4570;BME280;2297;51.442;6.996;2023-07-31T09:45:26;99548.88;;;17.70;70.83
4570;BME280;2297;51.442;6.996;2023-07-31T09:47:53;99538.69;;;17.90;70.16
4570;BME280;2297;51.442;6.996;2023-07-31T09:50:21;99546.72;;;17.46;71.41
4570;BME280;2297;51.442;6.996;2023-07-31T09:52:48;99539.88;;;17.86;70.44
4570;BME280;2297;51.442;6.996;2023-07-31T09:55:17;99538.75;;;17.75;70.19
4570;BME280;2297;51.442;6.996;2023-07-31T09:57:46;99542.38;;;17.74;70.59
4570;BME280;2297;51.442;6.996;2023-07-31T10:00:16;99532.34;;;17.78;70.28
4570;BME280;2297;51.442;6.996;2023-07-31T10:02:45;99545.41;;;17.83;70.65
4570;BME280;2297;51.442;6.996;2023-07-31T10:05:13;99535.28;;;17.59;71.43
4570;BME280;2297;51.442;6.996;2023-07-31T10:07:49;99539.19;;;17.53;71.80
4570;BME280;2297;51.442;6.996;2023-07-31T10:10:20;99537.69;;;17.49;71.75
4570;BME280;2297;51.442;6.996;2023-07-31T10:12:48;99530.50;;;17.64;71.45
4570;BME280;2297;51.442;6.996;2023-07-31T10:15:15;99535.31;;;17.73;71.21
4570;BME280;2297;51.442;6.996;2023-07-31T10:17:43;99566.34;;;17.45;72.29
4570;BME280;2297;51.442;6.996;2023-07-31T10:20:10;99537.31;;;17.70;71.65
4570;BME280;2297;51.442;6.996;2023-07-31T10:22:38;99533.00;;;17.67;71.71
4570;BME280;2297;51.442;6.996;2023-07-31T10:25:07;99531.09;;;17.84;71.29
4570;BME280;2297;51.442;6.996;2023-07-31T10:27:38;99534.53;;;17.57;71.60
4570;BME280;2297;51.442;6.996;2023-07-31T10:30:08;99534.13;;;17.63;71.88
4570;BME280;2297;51.442;6.996;2023-07-31T10:32:51;99530.59;;;17.19;73.05
4570;BME280;2297;51.442;6.996;2023-07-31T10:35:20;99535.47;;;17.41;72.68
4570;BME280;2297;51.442;6.996;2023-07-31T10:37:47;99533.97;;;17.52;72.52
4570;BME280;2297;51.442;6.996;2023-07-31T10:40:18;99530.16;;;17.85;71.31
4570;BME280;2297;51.442;6.996;2023-07-31T10:42:47;99525.94;;;17.81;71.38
4570;BME280;2297;51.442;6.996;2023-07-31T10:45:24;99535.41;;;18.13;70.26
4570;BME280;2297;51.442;6.996;2023-07-31T10:47:58;99533.34;;;18.04;70.35
4570;BME280;2297;51.442;6.996;2023-07-31T10:50:26;99539.84;;;17.28;71.97
4570;BME280;2297;51.442;6.996;2023-07-31T10:52:54;99530.06;;;17.86;70.85
4570;BME280;2297;51.442;6.996;2023-07-31T10:58:37;99518.66;;;18.11;70.07
4570;BME280;2297;51.442;6.996;2023-07-31T11:01:05;99517.97;;;18.08;70.38
4570;BME280;2297;51.442;6.996;2023-07-31T11:03:42;99520.06;;;18.17;69.83
4570;BME280;2297;51.442;6.996;2023-07-31T11:06:09;99531.53;;;18.05;70.04
4570;BME280;2297;51.442;6.996;2023-07-31T11:08:41;99512.53;;;18.09;70.31
4570;BME280;2297;51.442;6.996;2023-07-31T11:11:09;99515.41;;;18.06;70.51
4570;BME280;2297;51.442;6.996;2023-07-31T11:13:43;99517.78;;;18.38;69.25
4570;BME280;2297;51.442;6.996;2023-07-31T11:16:11;99506.22;;;18.65;68.31
4570;BME280;2297;51.442;6.996;2023-07-31T11:18:40;99512.41;;;18.53;68.67
4570;BME280;2297;51.442;6.996;2023-07-31T11:21:07;99513.25;;;18.53;68.74
4570;BME280;2297;51.442;6.996;2023-07-31T11:23:36;99519.25;;;18.57;68.58
4570;BME280;2297;51.442;6.996;2023-07-31T11:26:05;99522.59;;;18.60;68.98
4570;BME280;2297;51.442;6.996;2023-07-31T11:28:33;99525.44;;;18.44;68.68
4570;BME280;2297;51.442;6.996;2023-07-31T11:31:02;99518.31;;;18.58;68.55
4570;BME280;2297;51.442;6.996;2023-07-31T11:33:29;99520.84;;;18.47;69.22
4570;BME280;2297;51.442;6.996;2023-07-31T11:35:57;99512.78;;;18.74;68.30
4570;BME280;2297;51.442;6.996;2023-07-31T11:38:30;99497.91;;;18.83;67.70
4570;BME280;2297;51.442;6.996;2023-07-31T11:41:00;99506.66;;;18.59;68.16
4570;BME280;2297;51.442;6.996;2023-07-31T11:43:28;99506.50;;;19.14;66.67
4570;BME280;2297;51.442;6.996;2023-07-31T11:45:58;99512.06;;;19.10;66.74
4570;BME280;2297;51.442;6.996;2023-07-31T11:48:27;99510.78;;;19.03;67.30
4570;BME280;2297;51.442;6.996;2023-07-31T11:50:57;99504.16;;;18.96;67.36
4570;BME280;2297;51.442;6.996;2023-07-31T11:53:28;99506.00;;;18.55;68.74
4570;BME280;2297;51.442;6.996;2023-07-31T11:55:58;99505.75;;;18.86;67.66
4570;BME280;2297;51.442;6.996;2023-07-31T11:58:26;99498.28;;;18.91;67.72
4570;BME280;2297;51.442;6.996;2023-07-31T12:00:53;99507.53;;;18.85;67.83
4570;BME280;2297;51.442;6.996;2023-07-31T12:03:20;99506.09;;;19.07;67.09
4570;BME280;2297;51.442;6.996;2023-07-31T12:05:50;99496.31;;;18.93;67.38
4570;BME280;2297;51.442;6.996;2023-07-31T12:08:21;99505.59;;;18.74;68.22
4570;BME280;2297;51.442;6.996;2023-07-31T12:10:50;99507.66;;;18.84;67.66
4570;BME280;2297;51.442;6.996;2023-07-31T12:13:20;99513.06;;;18.56;68.88
4570;BME280;2297;51.442;6.996;2023-07-31T12:15:54;99502.09;;;18.74;68.14
4570;BME280;2297;51.442;6.996;2023-07-31T12:18:34;99505.81;;;18.71;68.21
4570;BME280;2297;51.442;6.996;2023-07-31T12:21:05;99500.72;;;18.94;67.60
4570;BME280;2297;51.442;6.996;2023-07-31T12:23:32;99501.72;;;18.53;68.82
4570;BME280;2297;51.442;6.996;2023-07-31T12:26:01;99500.69;;;18.13;70.16
4570;BME280;2297;51.442;6.996;2023-07-31T12:28:28;99500.47;;;18.71;68.66
4570;BME280;2297;51.442;6.996;2023-07-31T12:30:57;99492.25;;;18.87;68.15
4570;BME280;2297;51.442;6.996;2023-07-31T12:33:24;99494.28;;;18.84;67.95
4570;BME280;2297;51.442;6.996;2023-07-31T12:35:59;99499.44;;;18.87;67.90
4570;BME280;2297;51.442;6.996;2023-07-31T12:38:30;99483.56;;;18.71;68.33
4570;BME280;2297;51.442;6.996;2023-07-31T12:40:57;99479.41;;;18.79;67.86
4570;BME280;2297;51.442;6.996;2023-07-31T12:43:24;99464.34;;;19.04;66.84
4570;BME280;2297;51.442;6.996;2023-07-31T12:45:50;99480.16;;;18.94;66.83
4570;BME280;2297;51.442;6.996;2023-07-31T12:48:17;99470.75;;;19.15;66.09
4570;BME280;2297;51.442;6.996;2023-07-31T12:50:44;99477.50;;;19.07;66.12
4570;BME280;2297;51.442;6.996;2023-07-31T12:53:11;99475.66;;;19.08;65.87
4570;BME280;2297;51.442;6.996;2023-07-31T12:55:39;99492.88;;;18.65;67.31
4570;BME280;2297;51.442;6.996;2023-07-31T12:58:05;99478.13;;;18.98;66.70
4570;BME280;2297;51.442;6.996;2023-07-31T13:00:32;99464.47;;;19.03;66.84
4570;BME280;2297;51.442;6.996;2023-07-31T13:02:59;99468.94;;;19.15;66.56
4570;BME280;2297;51.442;6.996;2023-07-31T13:05:26;99475.56;;;18.97;67.30
4570;BME280;2297;51.442;6.996;2023-07-31T13:07:53;99468.72;;;18.79;68.37
4570;BME280;2297;51.442;6.996;2023-07-31T13:10:20;99474.63;;;18.98;68.08
4570;BME280;2297;51.442;6.996;2023-07-31T13:12:48;99451.72;;;18.93;68.28
4570;BME280;2297;51.442;6.996;2023-07-31T13:15:15;99442.28;;;19.14;67.55
4570;BME280;2297;51.442;6.996;2023-07-31T13:17:43;99434.03;;;19.04;67.92
4570;BME280;2297;51.442;6.996;2023-07-31T13:20:15;99438.78;;;19.00;67.81
4570;BME280;2297;51.442;6.996;2023-07-31T13:22:41;99433.97;;;19.05;67.47
4570;BME280;2297;51.442;6.996;2023-07-31T13:25:08;99430.41;;;19.18;67.16
4570;BME280;2297;51.442;6.996;2023-07-31T13:27:35;99424.63;;;19.37;66.54
4570;BME280;2297;51.442;6.996;2023-07-31T13:30:05;99416.28;;;19.28;67.16
4570;BME280;2297;51.442;6.996;2023-07-31T13:32:32;99416.19;;;18.78;68.76
4570;BME280;2297;51.442;6.996;2023-07-31T13:34:58;99413.28;;;19.07;68.14